sensor_id;sensor_type;location;lat;lon;timestamp;temperature;humidity
28069;DHT22;15382;47.578;8.086;2023-04-03T00:01:34;7.40;99.90
28069;DHT22;15382;47.578;8.086;2023-04-03T00:11:35;7.20;99.90
28069;DHT22;15382;47.578;8.086;2023-04-03T00:21:36;7.30;99.90
28069;DHT22;15382;47.578;8.086;2023-04-03T00:31:37;7.10;99.90
28069;DHT22;15382;47.578;8.086;2023-04-03T00:41:38;7.00;99.90
28069;DHT22;15382;47.578;8.086;2023-04-03T00:51:38;6.70;99.90
28069;DHT22;15382;47.578;8.086;2023-04-03T01:01:39;6.60;99.90
28069;DHT22;15382;47.578;8.086;2023-04-03T01:11:40;6.60;99.90
28069;DHT22;15382;47.578;8.086;2023-04-03T01:31:54;6.20;99.90
28069;DHT22;15382;47.578;8.086;2023-04-03T01:41:55;6.20;99.90
28069;DHT22;15382;47.578;8.086;2023-04-03T01:52:09;6.00;99.90
28069;DHT22;15382;47.578;8.086;2023-04-03T02:02:10;5.90;99.90
28069;DHT22;15382;47.578;8.086;2023-04-03T02:12:12;5.80;99.90
28069;DHT22;15382;47.578;8.086;2023-04-03T02:22:13;5.80;99.90
28069;DHT22;15382;47.578;8.086;2023-04-03T02:32:14;5.60;99.90
28069;DHT22;15382;47.578;8.086;2023-04-03T02:42:16;5.60;99.90
28069;DHT22;15382;47.578;8.086;2023-04-03T02:52:17;5.50;99.90
28069;DHT22;15382;47.578;8.086;2023-04-03T03:02:18;5.50;99.90
28069;DHT22;15382;47.578;8.086;2023-04-03T03:12:18;5.40;99.90
28069;DHT22;15382;47.578;8.086;2023-04-03T03:22:22;5.30;99.90
28069;DHT22;15382;47.578;8.086;2023-04-03T03:32:22;5.30;99.90
28069;DHT22;15382;47.578;8.086;2023-04-03T03:42:23;5.20;99.90
28069;DHT22;15382;47.578;8.086;2023-04-03T03:52:24;5.10;99.90
28069;DHT22;15382;47.578;8.086;2023-04-03T04:02:25;5.10;99.90
28069;DHT22;15382;47.578;8.086;2023-04-03T04:12:27;5.00;99.90
28069;DHT22;15382;47.578;8.086;2023-04-03T04:22:29;4.90;99.90
28069;DHT22;15382;47.578;8.086;2023-04-03T04:32:30;5.00;99.90
28069;DHT22;15382;47.578;8.086;2023-04-03T04:42:31;5.10;99.90
28069;DHT22;15382;47.578;8.086;2023-04-03T04:52:32;5.00;99.90
28069;DHT22;15382;47.578;8.086;2023-04-03T05:02:33;5.00;99.90
28069;DHT22;15382;47.578;8.086;2023-04-03T05:12:34;4.70;99.90
28069;DHT22;15382;47.578;8.086;2023-04-03T05:22:37;4.50;99.90
28069;DHT22;15382;47.578;8.086;2023-04-03T05:32:41;4.60;99.90
28069;DHT22;15382;47.578;8.086;2023-04-03T05:42:58;4.60;99.90
28069;DHT22;15382;47.578;8.086;2023-04-03T05:53:02;4.70;99.90
28069;DHT22;15382;47.578;8.086;2023-04-03T06:03:04;4.40;99.90
28069;DHT22;15382;47.578;8.086;2023-04-03T06:13:06;4.30;99.90
28069;DHT22;15382;47.578;8.086;2023-04-03T06:23:07;4.20;99.90
28069;DHT22;15382;47.578;8.086;2023-04-03T06:33:08;4.30;99.90
28069;DHT22;15382;47.578;8.086;2023-04-03T06:43:09;4.30;99.90
28069;DHT22;15382;47.578;8.086;2023-04-03T06:53:10;4.10;99.90
28069;DHT22;15382;47.578;8.086;2023-04-03T07:03:11;4.00;99.90
28069;DHT22;15382;47.578;8.086;2023-04-03T07:13:12;3.90;99.90
28069;DHT22;15382;47.578;8.086;2023-04-03T07:23:12;4.00;99.90
28069;DHT22;15382;47.578;8.086;2023-04-03T07:33:14;4.00;99.90
28069;DHT22;15382;47.578;8.086;2023-04-03T07:43:17;4.10;99.90
28069;DHT22;15382;47.578;8.086;2023-04-03T07:53:18;4.20;99.90
28069;DHT22;15382;47.578;8.086;2023-04-03T08:03:19;4.30;99.90
28069;DHT22;15382;47.578;8.086;2023-04-03T08:13:21;4.50;99.90
28069;DHT22;15382;47.578;8.086;2023-04-03T08:23:22;4.50;99.90
28069;DHT22;15382;47.578;8.086;2023-04-03T08:33:23;4.70;99.90
28069;DHT22;15382;47.578;8.086;2023-04-03T08:43:29;5.10;99.90
28069;DHT22;15382;47.578;8.086;2023-04-03T08:53:34;5.30;99.90
28069;DHT22;15382;47.578;8.086;2023-04-03T09:03:38;5.40;99.90
28069;DHT22;15382;47.578;8.086;2023-04-03T09:24:06;6.80;99.90
28069;DHT22;15382;47.578;8.086;2023-04-03T09:34:30;6.50;99.90
28069;DHT22;15382;47.578;8.086;2023-04-03T09:44:35;6.60;99.90
28069;DHT22;15382;47.578;8.086;2023-04-03T09:54:37;6.30;99.90
28069;DHT22;15382;47.578;8.086;2023-04-03T10:04:41;6.30;99.90
28069;DHT22;15382;47.578;8.086;2023-04-03T10:14:58;6.40;99.90
28069;DHT22;15382;47.578;8.086;2023-04-03T10:25:04;6.80;99.90
28069;DHT22;15382;47.578;8.086;2023-04-03T10:36:12;6.80;99.90
28069;DHT22;15382;47.578;8.086;2023-04-03T10:56:35;7.00;99.90
28069;DHT22;15382;47.578;8.086;2023-04-03T11:06:39;7.10;99.90
28069;DHT22;15382;47.578;8.086;2023-04-03T11:27:17;7.50;99.90
28069;DHT22;15382;47.578;8.086;2023-04-03T11:37:39;7.50;99.90
28069;DHT22;15382;47.578;8.086;2023-04-03T12:28:53;7.50;99.90
28069;DHT22;15382;47.578;8.086;2023-04-03T12:39:11;7.50;99.90
28069;DHT22;15382;47.578;8.086;2023-04-03T12:49:30;7.40;99.90
28069;DHT22;15382;47.578;8.086;2023-04-03T12:59:34;7.30;99.90
28069;DHT22;15382;47.578;8.086;2023-04-03T13:09:37;7.30;99.90
28069;DHT22;15382;47.578;8.086;2023-04-03T13:19:38;7.40;99.90
28069;DHT22;15382;47.578;8.086;2023-04-03T13:29:39;7.10;99.90
28069;DHT22;15382;47.578;8.086;2023-04-03T13:39:40;7.00;99.90
28069;DHT22;15382;47.578;8.086;2023-04-03T13:50:01;7.50;99.90
28069;DHT22;15382;47.578;8.086;2023-04-03T14:10:38;7.10;99.90
28069;DHT22;15382;47.578;8.086;2023-04-03T14:20:39;7.10;99.90
28069;DHT22;15382;47.578;8.086;2023-04-03T14:30:40;7.40;99.90
28069;DHT22;15382;47.578;8.086;2023-04-03T14:40:41;7.50;99.90
28069;DHT22;15382;47.578;8.086;2023-04-03T14:50:41;7.20;99.90
28069;DHT22;15382;47.578;8.086;2023-04-03T15:00:43;7.20;99.90
28069;DHT22;15382;47.578;8.086;2023-04-03T15:10:44;7.40;99.90
28069;DHT22;15382;47.578;8.086;2023-04-03T15:20:45;7.30;99.90
28069;DHT22;15382;47.578;8.086;2023-04-03T15:30:46;6.90;99.90
28069;DHT22;15382;47.578;8.086;2023-04-03T15:40:47;6.80;99.90
28069;DHT22;15382;47.578;8.086;2023-04-03T15:50:48;7.10;99.90
28069;DHT22;15382;47.578;8.086;2023-04-03T16:00:49;7.10;99.90
28069;DHT22;15382;47.578;8.086;2023-04-03T16:10:50;7.00;99.90
28069;DHT22;15382;47.578;8.086;2023-04-03T16:20:51;6.60;99.90
28069;DHT22;15382;47.578;8.086;2023-04-03T16:30:52;6.60;99.90
28069;DHT22;15382;47.578;8.086;2023-04-03T16:40:53;6.50;99.90
28069;DHT22;15382;47.578;8.086;2023-04-03T16:50:57;6.30;99.90
28069;DHT22;15382;47.578;8.086;2023-04-03T17:00:58;6.30;99.90
28069;DHT22;15382;47.578;8.086;2023-04-03T17:10:58;6.20;99.90
28069;DHT22;15382;47.578;8.086;2023-04-03T17:21:00;6.20;99.90
28069;DHT22;15382;47.578;8.086;2023-04-03T17:31:05;6.10;99.90
28069;DHT22;15382;47.578;8.086;2023-04-03T17:41:07;5.90;99.90
28069;DHT22;15382;47.578;8.086;2023-04-03T17:51:11;5.70;99.90
28069;DHT22;15382;47.578;8.086;2023-04-03T18:01:18;5.60;99.90
28069;DHT22;15382;47.578;8.086;2023-04-03T18:11:20;5.50;99.90
28069;DHT22;15382;47.578;8.086;2023-04-03T18:21:22;5.30;99.90
28069;DHT22;15382;47.578;8.086;2023-04-03T18:31:23;5.20;99.90
28069;DHT22;15382;47.578;8.086;2023-04-03T18:41:28;5.10;99.90
28069;DHT22;15382;47.578;8.086;2023-04-03T18:51:30;5.10;99.90
28069;DHT22;15382;47.578;8.086;2023-04-03T19:01:30;5.00;99.90
28069;DHT22;15382;47.578;8.086;2023-04-03T19:11:31;4.90;99.90
28069;DHT22;15382;47.578;8.086;2023-04-03T19:21:32;4.80;99.90
28069;DHT22;15382;47.578;8.086;2023-04-03T19:31:35;4.70;99.90
28069;DHT22;15382;47.578;8.086;2023-04-03T19:41:37;4.40;99.90
28069;DHT22;15382;47.578;8.086;2023-04-03T19:51:40;4.30;99.90
28069;DHT22;15382;47.578;8.086;2023-04-03T20:01:41;4.30;99.90
28069;DHT22;15382;47.578;8.086;2023-04-03T20:11:42;4.20;99.90
28069;DHT22;15382;47.578;8.086;2023-04-03T20:21:46;4.20;99.90
28069;DHT22;15382;47.578;8.086;2023-04-03T20:31:47;4.20;99.90
28069;DHT22;15382;47.578;8.086;2023-04-03T20:41:48;4.20;99.90
28069;DHT22;15382;47.578;8.086;2023-04-03T20:51:50;4.00;99.90
28069;DHT22;15382;47.578;8.086;2023-04-03T21:01:52;3.80;99.90
28069;DHT22;15382;47.578;8.086;2023-04-03T21:22:32;3.50;99.90
28069;DHT22;15382;47.578;8.086;2023-04-03T21:32:33;3.40;99.90
28069;DHT22;15382;47.578;8.086;2023-04-03T21:42:33;3.20;99.90
28069;DHT22;15382;47.578;8.086;2023-04-03T21:52:34;3.10;99.90
28069;DHT22;15382;47.578;8.086;2023-04-03T22:02:39;3.00;99.90
28069;DHT22;15382;47.578;8.086;2023-04-03T22:12:40;3.00;99.90
28069;DHT22;15382;47.578;8.086;2023-04-03T22:22:41;2.90;99.90
28069;DHT22;15382;47.578;8.086;2023-04-03T22:32:42;2.70;99.90
28069;DHT22;15382;47.578;8.086;2023-04-03T22:42:46;2.60;99.90
28069;DHT22;15382;47.578;8.086;2023-04-03T22:52:47;2.50;99.90
28069;DHT22;15382;47.578;8.086;2023-04-03T23:02:48;2.40;99.90
28069;DHT22;15382;47.578;8.086;2023-04-03T23:12:49;2.30;99.90
28069;DHT22;15382;47.578;8.086;2023-04-03T23:22:50;2.20;99.90
28069;DHT22;15382;47.578;8.086;2023-04-03T23:32:51;2.20;99.90
28069;DHT22;15382;47.578;8.086;2023-04-03T23:42:51;2.10;99.90
28069;DHT22;15382;47.578;8.086;2023-04-03T23:52:52;2.00;99.90
